sensor_id;sensor_type;location;lat;lon;timestamp;P1;durP1;ratioP1;P2;durP2;ratioP2
75154;SDS011;63735;44.730;37.818;2022-11-15T00:01:59;4.45;;;2.15;;
75154;SDS011;63735;44.730;37.818;2022-11-15T00:04:44;5.72;;;2.83;;
75154;SDS011;63735;44.730;37.818;2022-11-15T00:07:28;5.18;;;2.40;;
75154;SDS011;63735;44.730;37.818;2022-11-15T00:10:13;7.00;;;2.33;;
75154;SDS011;63735;44.730;37.818;2022-11-15T00:12:57;5.13;;;2.03;;
75154;SDS011;63735;44.730;37.818;2022-11-15T00:15:42;6.07;;;2.22;;
75154;SDS011;63735;44.730;37.818;2022-11-15T00:18:27;6.97;;;2.88;;
75154;SDS011;63735;44.730;37.818;2022-11-15T00:21:12;9.75;;;2.60;;
75154;SDS011;63735;44.730;37.818;2022-11-15T00:24:00;4.70;;;2.42;;
75154;SDS011;63735;44.730;37.818;2022-11-15T00:26:44;5.88;;;2.50;;
75154;SDS011;63735;44.730;37.818;2022-11-15T00:29:29;6.65;;;2.45;;
75154;SDS011;63735;44.730;37.818;2022-11-15T00:32:13;4.07;;;2.40;;
75154;SDS011;63735;44.730;37.818;2022-11-15T00:34:58;4.35;;;2.10;;
75154;SDS011;63735;44.730;37.818;2022-11-15T00:37:42;3.20;;;1.90;;
75154;SDS011;63735;44.730;37.818;2022-11-15T00:40:27;5.47;;;2.40;;
75154;SDS011;63735;44.730;37.818;2022-11-15T00:43:12;5.30;;;2.60;;
75154;SDS011;63735;44.730;37.818;2022-11-15T00:45:56;4.97;;;2.55;;
75154;SDS011;63735;44.730;37.818;2022-11-15T00:48:41;6.28;;;2.67;;
75154;SDS011;63735;44.730;37.818;2022-11-15T00:51:25;10.48;;;3.20;;
75154;SDS011;63735;44.730;37.818;2022-11-15T00:54:10;8.45;;;2.50;;
75154;SDS011;63735;44.730;37.818;2022-11-15T00:56:54;9.93;;;3.42;;
75154;SDS011;63735;44.730;37.818;2022-11-15T00:59:39;4.47;;;2.63;;
75154;SDS011;63735;44.730;37.818;2022-11-15T01:02:23;7.43;;;3.10;;
75154;SDS011;63735;44.730;37.818;2022-11-15T01:05:08;9.57;;;2.85;;
75154;SDS011;63735;44.730;37.818;2022-11-15T01:07:52;6.07;;;2.88;;
75154;SDS011;63735;44.730;37.818;2022-11-15T01:10:38;6.93;;;2.90;;
75154;SDS011;63735;44.730;37.818;2022-11-15T01:13:22;9.20;;;3.17;;
75154;SDS011;63735;44.730;37.818;2022-11-15T01:16:12;7.95;;;3.33;;
75154;SDS011;63735;44.730;37.818;2022-11-15T01:18:58;6.38;;;2.35;;
75154;SDS011;63735;44.730;37.818;2022-11-15T01:21:43;3.58;;;2.40;;
75154;SDS011;63735;44.730;37.818;2022-11-15T01:24:27;9.82;;;2.33;;
75154;SDS011;63735;44.730;37.818;2022-11-15T01:27:12;6.07;;;2.45;;
75154;SDS011;63735;44.730;37.818;2022-11-15T01:29:56;5.75;;;2.92;;
75154;SDS011;63735;44.730;37.818;2022-11-15T01:32:41;7.63;;;2.47;;
75154;SDS011;63735;44.730;37.818;2022-11-15T01:35:25;5.20;;;2.65;;
75154;SDS011;63735;44.730;37.818;2022-11-15T01:38:10;6.90;;;2.50;;
75154;SDS011;63735;44.730;37.818;2022-11-15T01:40:54;4.15;;;2.20;;
75154;SDS011;63735;44.730;37.818;2022-11-15T01:43:39;5.03;;;2.38;;
75154;SDS011;63735;44.730;37.818;2022-11-15T01:49:16;3.95;;;2.35;;
75154;SDS011;63735;44.730;37.818;2022-11-15T01:52:03;3.90;;;2.05;;
75154;SDS011;63735;44.730;37.818;2022-11-15T01:54:53;3.85;;;1.60;;
75154;SDS011;63735;44.730;37.818;2022-11-15T01:57:51;3.08;;;1.83;;
75154;SDS011;63735;44.730;37.818;2022-11-15T02:00:40;4.88;;;2.20;;
75154;SDS011;63735;44.730;37.818;2022-11-15T02:03:26;3.80;;;1.85;;
75154;SDS011;63735;44.730;37.818;2022-11-15T02:06:24;4.95;;;2.63;;
75154;SDS011;63735;44.730;37.818;2022-11-15T02:09:09;4.78;;;2.40;;
75154;SDS011;63735;44.730;37.818;2022-11-15T02:11:54;6.50;;;2.15;;
75154;SDS011;63735;44.730;37.818;2022-11-15T02:14:40;7.22;;;2.47;;
75154;SDS011;63735;44.730;37.818;2022-11-15T02:41:40;2.28;;;1.30;;
75154;SDS011;63735;44.730;37.818;2022-11-15T02:44:47;2.08;;;1.13;;
75154;SDS011;63735;44.730;37.818;2022-11-15T02:47:34;6.40;;;1.45;;
75154;SDS011;63735;44.730;37.818;2022-11-15T02:50:26;4.82;;;1.48;;
75154;SDS011;63735;44.730;37.818;2022-11-15T02:53:14;8.00;;;1.70;;
75154;SDS011;63735;44.730;37.818;2022-11-15T02:55:59;5.57;;;1.92;;
75154;SDS011;63735;44.730;37.818;2022-11-15T03:01:47;2.97;;;1.67;;
75154;SDS011;63735;44.730;37.818;2022-11-15T03:05:02;2.70;;;1.70;;
75154;SDS011;63735;44.730;37.818;2022-11-15T03:11:12;4.15;;;1.60;;
75154;SDS011;63735;44.730;37.818;2022-11-15T03:20:06;2.42;;;1.20;;
75154;SDS011;63735;44.730;37.818;2022-11-15T03:22:52;4.03;;;1.40;;
75154;SDS011;63735;44.730;37.818;2022-11-15T03:25:41;2.15;;;1.33;;
75154;SDS011;63735;44.730;37.818;2022-11-15T03:28:32;1.88;;;1.27;;
75154;SDS011;63735;44.730;37.818;2022-11-15T03:31:21;5.22;;;1.70;;
75154;SDS011;63735;44.730;37.818;2022-11-15T03:34:29;3.42;;;1.35;;
75154;SDS011;63735;44.730;37.818;2022-11-15T03:40:47;2.22;;;0.98;;
75154;SDS011;63735;44.730;37.818;2022-11-15T03:46:47;4.65;;;1.50;;
75154;SDS011;63735;44.730;37.818;2022-11-15T03:50:15;4.40;;;0.77;;
75154;SDS011;63735;44.730;37.818;2022-11-15T03:53:01;2.22;;;0.90;;
75154;SDS011;63735;44.730;37.818;2022-11-15T03:55:45;3.70;;;1.10;;
75154;SDS011;63735;44.730;37.818;2022-11-15T03:58:30;1.80;;;0.90;;
75154;SDS011;63735;44.730;37.818;2022-11-15T04:01:14;1.83;;;0.52;;
75154;SDS011;63735;44.730;37.818;2022-11-15T04:03:59;1.65;;;0.88;;
75154;SDS011;63735;44.730;37.818;2022-11-15T04:06:43;3.75;;;1.08;;
75154;SDS011;63735;44.730;37.818;2022-11-15T04:09:28;6.82;;;1.30;;
75154;SDS011;63735;44.730;37.818;2022-11-15T04:12:12;2.05;;;0.90;;
75154;SDS011;63735;44.730;37.818;2022-11-15T04:15:14;2.67;;;1.33;;
75154;SDS011;63735;44.730;37.818;2022-11-15T04:18:00;2.33;;;0.90;;
75154;SDS011;63735;44.730;37.818;2022-11-15T04:20:45;1.80;;;0.90;;
75154;SDS011;63735;44.730;37.818;2022-11-15T04:23:48;1.52;;;0.90;;
75154;SDS011;63735;44.730;37.818;2022-11-15T04:26:51;5.03;;;1.10;;
75154;SDS011;63735;44.730;37.818;2022-11-15T04:29:35;1.90;;;0.80;;
75154;SDS011;63735;44.730;37.818;2022-11-15T04:32:19;3.00;;;1.15;;
75154;SDS011;63735;44.730;37.818;2022-11-15T04:35:04;1.05;;;0.70;;
75154;SDS011;63735;44.730;37.818;2022-11-15T04:37:49;2.30;;;0.80;;
75154;SDS011;63735;44.730;37.818;2022-11-15T04:40:34;2.95;;;0.98;;
75154;SDS011;63735;44.730;37.818;2022-11-15T04:43:19;0.98;;;0.80;;
75154;SDS011;63735;44.730;37.818;2022-11-15T04:46:03;2.50;;;1.17;;
75154;SDS011;63735;44.730;37.818;2022-11-15T04:48:48;6.72;;;1.55;;
75154;SDS011;63735;44.730;37.818;2022-11-15T04:51:32;3.92;;;1.50;;
75154;SDS011;63735;44.730;37.818;2022-11-15T04:54:17;6.38;;;1.17;;
75154;SDS011;63735;44.730;37.818;2022-11-15T04:57:01;1.67;;;1.10;;
75154;SDS011;63735;44.730;37.818;2022-11-15T04:59:46;2.83;;;1.00;;
75154;SDS011;63735;44.730;37.818;2022-11-15T05:02:30;4.43;;;1.15;;
75154;SDS011;63735;44.730;37.818;2022-11-15T05:05:34;3.58;;;1.00;;
75154;SDS011;63735;44.730;37.818;2022-11-15T05:08:19;1.95;;;0.90;;
75154;SDS011;63735;44.730;37.818;2022-11-15T05:11:03;2.80;;;1.25;;
75154;SDS011;63735;44.730;37.818;2022-11-15T05:13:48;2.55;;;1.23;;
75154;SDS011;63735;44.730;37.818;2022-11-15T05:16:32;1.30;;;0.80;;
75154;SDS011;63735;44.730;37.818;2022-11-15T05:19:17;5.57;;;1.15;;
75154;SDS011;63735;44.730;37.818;2022-11-15T05:22:01;2.85;;;0.80;;
75154;SDS011;63735;44.730;37.818;2022-11-15T05:24:46;3.15;;;1.02;;
75154;SDS011;63735;44.730;37.818;2022-11-15T05:27:30;6.75;;;1.90;;
75154;SDS011;63735;44.730;37.818;2022-11-15T05:30:15;1.92;;;1.20;;
75154;SDS011;63735;44.730;37.818;2022-11-15T05:33:00;3.17;;;0.82;;
75154;SDS011;63735;44.730;37.818;2022-11-15T05:35:46;3.30;;;1.40;;
75154;SDS011;63735;44.730;37.818;2022-11-15T05:38:38;3.47;;;1.27;;
75154;SDS011;63735;44.730;37.818;2022-11-15T05:41:41;2.35;;;0.80;;
75154;SDS011;63735;44.730;37.818;2022-11-15T05:44:30;4.45;;;1.50;;
75154;SDS011;63735;44.730;37.818;2022-11-15T05:47:17;3.80;;;0.60;;
75154;SDS011;63735;44.730;37.818;2022-11-15T05:50:07;2.10;;;0.60;;
75154;SDS011;63735;44.730;37.818;2022-11-15T05:52:54;1.45;;;0.60;;
75154;SDS011;63735;44.730;37.818;2022-11-15T05:55:39;1.02;;;0.90;;
75154;SDS011;63735;44.730;37.818;2022-11-15T05:58:24;1.00;;;0.60;;
75154;SDS011;63735;44.730;37.818;2022-11-15T06:01:09;3.30;;;0.80;;
75154;SDS011;63735;44.730;37.818;2022-11-15T06:03:53;2.47;;;0.82;;
75154;SDS011;63735;44.730;37.818;2022-11-15T06:06:38;2.03;;;0.80;;
75154;SDS011;63735;44.730;37.818;2022-11-15T06:09:22;2.10;;;0.80;;
75154;SDS011;63735;44.730;37.818;2022-11-15T06:12:07;0.90;;;0.60;;
75154;SDS011;63735;44.730;37.818;2022-11-15T06:14:51;2.40;;;0.90;;
75154;SDS011;63735;44.730;37.818;2022-11-15T06:17:36;1.77;;;0.73;;
75154;SDS011;63735;44.730;37.818;2022-11-15T06:20:20;0.95;;;0.57;;
75154;SDS011;63735;44.730;37.818;2022-11-15T06:23:05;2.88;;;0.90;;
75154;SDS011;63735;44.730;37.818;2022-11-15T06:25:50;1.63;;;0.75;;
75154;SDS011;63735;44.730;37.818;2022-11-15T06:28:34;2.42;;;0.60;;
75154;SDS011;63735;44.730;37.818;2022-11-15T06:31:18;1.13;;;0.52;;
75154;SDS011;63735;44.730;37.818;2022-11-15T06:34:03;1.73;;;0.50;;
75154;SDS011;63735;44.730;37.818;2022-11-15T06:36:47;0.68;;;0.50;;
75154;SDS011;63735;44.730;37.818;2022-11-15T06:39:32;1.13;;;0.60;;
75154;SDS011;63735;44.730;37.818;2022-11-15T06:42:16;3.42;;;0.70;;
75154;SDS011;63735;44.730;37.818;2022-11-15T06:45:01;1.90;;;0.63;;
75154;SDS011;63735;44.730;37.818;2022-11-15T06:47:46;1.05;;;0.50;;
75154;SDS011;63735;44.730;37.818;2022-11-15T06:50:30;1.85;;;0.70;;
75154;SDS011;63735;44.730;37.818;2022-11-15T06:53:15;1.25;;;0.60;;
75154;SDS011;63735;44.730;37.818;2022-11-15T06:56:00;1.80;;;0.50;;
75154;SDS011;63735;44.730;37.818;2022-11-15T06:58:47;2.13;;;0.60;;
75154;SDS011;63735;44.730;37.818;2022-11-15T07:01:31;2.05;;;0.60;;
75154;SDS011;63735;44.730;37.818;2022-11-15T07:04:16;0.80;;;0.45;;
75154;SDS011;63735;44.730;37.818;2022-11-15T07:07:00;0.65;;;0.50;;
75154;SDS011;63735;44.730;37.818;2022-11-15T07:09:45;5.93;;;0.80;;
75154;SDS011;63735;44.730;37.818;2022-11-15T07:12:29;1.25;;;0.70;;
75154;SDS011;63735;44.730;37.818;2022-11-15T07:15:14;6.10;;;0.55;;
75154;SDS011;63735;44.730;37.818;2022-11-15T07:18:02;0.65;;;0.32;;
75154;SDS011;63735;44.730;37.818;2022-11-15T07:20:47;1.05;;;0.50;;
75154;SDS011;63735;44.730;37.818;2022-11-15T07:23:32;1.42;;;0.57;;
75154;SDS011;63735;44.730;37.818;2022-11-15T07:26:16;0.70;;;0.43;;
75154;SDS011;63735;44.730;37.818;2022-11-15T07:29:01;0.93;;;0.40;;
75154;SDS011;63735;44.730;37.818;2022-11-15T07:31:45;2.45;;;0.75;;
75154;SDS011;63735;44.730;37.818;2022-11-15T07:34:29;5.47;;;0.60;;
75154;SDS011;63735;44.730;37.818;2022-11-15T07:37:14;0.90;;;0.60;;
75154;SDS011;63735;44.730;37.818;2022-11-15T07:39:58;0.63;;;0.40;;
75154;SDS011;63735;44.730;37.818;2022-11-15T07:42:43;0.80;;;0.40;;
75154;SDS011;63735;44.730;37.818;2022-11-15T07:45:40;0.68;;;0.40;;
75154;SDS011;63735;44.730;37.818;2022-11-15T07:48:26;1.00;;;0.38;;
75154;SDS011;63735;44.730;37.818;2022-11-15T07:51:14;0.65;;;0.35;;
75154;SDS011;63735;44.730;37.818;2022-11-15T07:53:59;1.02;;;0.65;;
75154;SDS011;63735;44.730;37.818;2022-11-15T07:56:43;1.17;;;0.45;;
75154;SDS011;63735;44.730;37.818;2022-11-15T07:59:28;1.80;;;0.60;;
75154;SDS011;63735;44.730;37.818;2022-11-15T08:02:12;1.55;;;0.45;;
75154;SDS011;63735;44.730;37.818;2022-11-15T08:04:57;1.63;;;0.65;;
75154;SDS011;63735;44.730;37.818;2022-11-15T08:07:43;0.90;;;0.50;;
75154;SDS011;63735;44.730;37.818;2022-11-15T08:10:27;2.85;;;0.80;;
75154;SDS011;63735;44.730;37.818;2022-11-15T08:13:12;2.50;;;0.70;;
75154;SDS011;63735;44.730;37.818;2022-11-15T08:16:00;1.48;;;0.60;;
75154;SDS011;63735;44.730;37.818;2022-11-15T08:18:46;0.80;;;0.50;;
75154;SDS011;63735;44.730;37.818;2022-11-15T08:21:30;2.15;;;0.82;;
75154;SDS011;63735;44.730;37.818;2022-11-15T08:24:15;1.95;;;0.65;;
75154;SDS011;63735;44.730;37.818;2022-11-15T08:27:00;1.20;;;0.77;;
75154;SDS011;63735;44.730;37.818;2022-11-15T08:29:44;2.38;;;0.80;;
75154;SDS011;63735;44.730;37.818;2022-11-15T08:32:30;2.20;;;1.00;;
75154;SDS011;63735;44.730;37.818;2022-11-15T08:35:15;1.90;;;0.70;;
75154;SDS011;63735;44.730;37.818;2022-11-15T08:38:00;1.58;;;0.60;;
75154;SDS011;63735;44.730;37.818;2022-11-15T08:40:44;1.80;;;0.50;;
75154;SDS011;63735;44.730;37.818;2022-11-15T08:43:29;1.30;;;0.68;;
75154;SDS011;63735;44.730;37.818;2022-11-15T08:46:13;1.45;;;0.63;;
75154;SDS011;63735;44.730;37.818;2022-11-15T08:48:58;0.95;;;0.52;;
75154;SDS011;63735;44.730;37.818;2022-11-15T08:51:42;3.65;;;0.70;;
75154;SDS011;63735;44.730;37.818;2022-11-15T08:54:27;1.88;;;0.90;;
75154;SDS011;63735;44.730;37.818;2022-11-15T08:57:11;1.60;;;0.80;;
75154;SDS011;63735;44.730;37.818;2022-11-15T08:59:56;2.35;;;0.85;;
75154;SDS011;63735;44.730;37.818;2022-11-15T09:02:41;2.50;;;0.90;;
75154;SDS011;63735;44.730;37.818;2022-11-15T09:05:25;1.67;;;0.70;;
75154;SDS011;63735;44.730;37.818;2022-11-15T09:08:10;2.08;;;0.80;;
75154;SDS011;63735;44.730;37.818;2022-11-15T09:10:56;1.83;;;0.82;;
75154;SDS011;63735;44.730;37.818;2022-11-15T09:13:41;7.78;;;1.10;;
75154;SDS011;63735;44.730;37.818;2022-11-15T09:16:26;3.53;;;1.45;;
75154;SDS011;63735;44.730;37.818;2022-11-15T09:19:10;1.92;;;0.80;;
75154;SDS011;63735;44.730;37.818;2022-11-15T09:21:55;1.55;;;0.90;;
75154;SDS011;63735;44.730;37.818;2022-11-15T09:24:39;2.55;;;1.23;;
75154;SDS011;63735;44.730;37.818;2022-11-15T09:27:27;2.15;;;1.40;;
75154;SDS011;63735;44.730;37.818;2022-11-15T09:30:15;2.55;;;1.23;;
75154;SDS011;63735;44.730;37.818;2022-11-15T09:33:05;2.00;;;1.00;;
75154;SDS011;63735;44.730;37.818;2022-11-15T09:35:59;3.28;;;1.20;;
75154;SDS011;63735;44.730;37.818;2022-11-15T09:38:47;1.77;;;1.13;;
75154;SDS011;63735;44.730;37.818;2022-11-15T09:44:41;3.05;;;1.40;;
75154;SDS011;63735;44.730;37.818;2022-11-15T09:50:49;2.10;;;1.15;;
75154;SDS011;63735;44.730;37.818;2022-11-15T09:56:19;5.57;;;2.03;;
75154;SDS011;63735;44.730;37.818;2022-11-15T10:04:29;6.05;;;2.50;;
75154;SDS011;63735;44.730;37.818;2022-11-15T10:09:54;7.10;;;3.28;;
75154;SDS011;63735;44.730;37.818;2022-11-15T10:12:27;10.85;;;3.67;;
75154;SDS011;63735;44.730;37.818;2022-11-15T10:15:04;5.43;;;2.53;;
75154;SDS011;63735;44.730;37.818;2022-11-15T10:20:22;5.85;;;2.70;;
75154;SDS011;63735;44.730;37.818;2022-11-15T10:22:50;4.95;;;3.10;;
75154;SDS011;63735;44.730;37.818;2022-11-15T10:28:03;9.63;;;2.92;;
75154;SDS011;63735;44.730;37.818;2022-11-15T10:30:40;9.15;;;3.70;;
75154;SDS011;63735;44.730;37.818;2022-11-15T10:33:24;8.00;;;3.63;;
75154;SDS011;63735;44.730;37.818;2022-11-15T10:43:43;11.27;;;4.50;;
75154;SDS011;63735;44.730;37.818;2022-11-15T10:46:19;13.05;;;4.78;;
75154;SDS011;63735;44.730;37.818;2022-11-15T10:48:47;14.10;;;4.40;;
75154;SDS011;63735;44.730;37.818;2022-11-15T10:51:24;7.50;;;3.80;;
75154;SDS011;63735;44.730;37.818;2022-11-15T10:53:59;7.68;;;4.00;;
75154;SDS011;63735;44.730;37.818;2022-11-15T10:56:26;8.35;;;4.20;;
75154;SDS011;63735;44.730;37.818;2022-11-15T10:58:55;11.75;;;5.13;;
75154;SDS011;63735;44.730;37.818;2022-11-15T11:01:23;13.85;;;4.78;;
75154;SDS011;63735;44.730;37.818;2022-11-15T11:03:58;9.07;;;4.50;;
75154;SDS011;63735;44.730;37.818;2022-11-15T11:06:27;9.35;;;4.50;;
75154;SDS011;63735;44.730;37.818;2022-11-15T11:09:03;13.07;;;5.40;;
75154;SDS011;63735;44.730;37.818;2022-11-15T11:11:46;10.00;;;5.05;;
75154;SDS011;63735;44.730;37.818;2022-11-15T11:14:23;13.20;;;5.78;;
75154;SDS011;63735;44.730;37.818;2022-11-15T11:17:09;12.98;;;4.95;;
75154;SDS011;63735;44.730;37.818;2022-11-15T11:46:04;9.52;;;4.30;;
75154;SDS011;63735;44.730;37.818;2022-11-15T11:48:42;7.90;;;4.22;;
75154;SDS011;63735;44.730;37.818;2022-11-15T11:51:55;9.38;;;4.72;;
75154;SDS011;63735;44.730;37.818;2022-11-15T11:56:43;10.50;;;4.10;;
75154;SDS011;63735;44.730;37.818;2022-11-15T11:59:15;12.27;;;5.05;;
75154;SDS011;63735;44.730;37.818;2022-11-15T12:01:42;16.17;;;4.65;;
75154;SDS011;63735;44.730;37.818;2022-11-15T12:06:46;13.20;;;5.22;;
75154;SDS011;63735;44.730;37.818;2022-11-15T12:09:23;13.93;;;5.22;;
75154;SDS011;63735;44.730;37.818;2022-11-15T12:14:24;11.23;;;4.70;;
75154;SDS011;63735;44.730;37.818;2022-11-15T12:16:57;14.48;;;5.82;;
75154;SDS011;63735;44.730;37.818;2022-11-15T12:19:23;12.27;;;5.05;;
75154;SDS011;63735;44.730;37.818;2022-11-15T12:21:54;11.70;;;4.85;;
75154;SDS011;63735;44.730;37.818;2022-11-15T12:24:29;11.45;;;5.50;;
75154;SDS011;63735;44.730;37.818;2022-11-15T12:29:47;9.65;;;5.43;;
75154;SDS011;63735;44.730;37.818;2022-11-15T12:34:54;13.27;;;5.78;;
75154;SDS011;63735;44.730;37.818;2022-11-15T12:45:23;9.07;;;5.38;;
75154;SDS011;63735;44.730;37.818;2022-11-15T12:51:14;11.43;;;5.47;;
75154;SDS011;63735;44.730;37.818;2022-11-15T12:53:34;14.52;;;6.35;;
75154;SDS011;63735;44.730;37.818;2022-11-15T12:58:54;11.95;;;6.53;;
75154;SDS011;63735;44.730;37.818;2022-11-15T13:06:53;13.70;;;6.07;;
75154;SDS011;63735;44.730;37.818;2022-11-15T13:19:45;15.30;;;7.70;;
75154;SDS011;63735;44.730;37.818;2022-11-15T13:22:12;13.50;;;6.75;;
75154;SDS011;63735;44.730;37.818;2022-11-15T13:25:01;14.55;;;8.52;;
75154;SDS011;63735;44.730;37.818;2022-11-15T13:27:27;14.75;;;7.30;;
75154;SDS011;63735;44.730;37.818;2022-11-15T13:29:54;17.40;;;6.97;;
75154;SDS011;63735;44.730;37.818;2022-11-15T13:32:20;13.73;;;7.40;;
75154;SDS011;63735;44.730;37.818;2022-11-15T13:34:47;16.13;;;7.38;;
75154;SDS011;63735;44.730;37.818;2022-11-15T13:39:47;15.43;;;7.40;;
75154;SDS011;63735;44.730;37.818;2022-11-15T13:42:15;15.40;;;7.15;;
75154;SDS011;63735;44.730;37.818;2022-11-15T13:44:55;12.02;;;6.32;;
75154;SDS011;63735;44.730;37.818;2022-11-15T13:47:24;13.10;;;6.95;;
75154;SDS011;63735;44.730;37.818;2022-11-15T13:49:52;15.25;;;7.03;;
75154;SDS011;63735;44.730;37.818;2022-11-15T13:52:18;15.80;;;7.47;;
75154;SDS011;63735;44.730;37.818;2022-11-15T13:54:57;17.63;;;7.32;;
75154;SDS011;63735;44.730;37.818;2022-11-15T13:57:30;12.48;;;6.85;;
75154;SDS011;63735;44.730;37.818;2022-11-15T14:02:55;14.57;;;6.18;;
75154;SDS011;63735;44.730;37.818;2022-11-15T14:05:23;11.93;;;5.65;;
75154;SDS011;63735;44.730;37.818;2022-11-15T14:07:53;13.55;;;6.20;;
75154;SDS011;63735;44.730;37.818;2022-11-15T14:10:36;16.83;;;7.18;;
75154;SDS011;63735;44.730;37.818;2022-11-15T14:13:03;15.63;;;7.25;;
75154;SDS011;63735;44.730;37.818;2022-11-15T14:15:37;14.25;;;5.50;;
75154;SDS011;63735;44.730;37.818;2022-11-15T14:18:04;13.00;;;5.07;;
75154;SDS011;63735;44.730;37.818;2022-11-15T14:20:35;13.48;;;5.78;;
75154;SDS011;63735;44.730;37.818;2022-11-15T14:23:04;10.88;;;4.70;;
75154;SDS011;63735;44.730;37.818;2022-11-15T14:25:54;12.43;;;5.93;;
75154;SDS011;63735;44.730;37.818;2022-11-15T14:30:53;11.13;;;5.10;;
75154;SDS011;63735;44.730;37.818;2022-11-15T14:33:33;9.73;;;5.03;;
75154;SDS011;63735;44.730;37.818;2022-11-15T14:36:04;11.35;;;5.18;;
75154;SDS011;63735;44.730;37.818;2022-11-15T14:38:31;14.02;;;5.25;;
75154;SDS011;63735;44.730;37.818;2022-11-15T14:40:57;9.93;;;5.22;;
75154;SDS011;63735;44.730;37.818;2022-11-15T14:43:23;13.07;;;5.03;;
75154;SDS011;63735;44.730;37.818;2022-11-15T14:45:49;13.52;;;4.38;;
75154;SDS011;63735;44.730;37.818;2022-11-15T14:48:15;10.77;;;4.38;;
75154;SDS011;63735;44.730;37.818;2022-11-15T14:50:41;10.38;;;4.25;;
75154;SDS011;63735;44.730;37.818;2022-11-15T14:53:11;13.32;;;4.60;;
75154;SDS011;63735;44.730;37.818;2022-11-15T14:55:41;9.38;;;4.20;;
75154;SDS011;63735;44.730;37.818;2022-11-15T14:58:08;9.05;;;4.20;;
75154;SDS011;63735;44.730;37.818;2022-11-15T15:00:35;11.57;;;4.68;;
75154;SDS011;63735;44.730;37.818;2022-11-15T15:03:03;10.02;;;4.28;;
75154;SDS011;63735;44.730;37.818;2022-11-15T15:05:36;10.43;;;4.50;;
75154;SDS011;63735;44.730;37.818;2022-11-15T15:08:07;11.48;;;4.72;;
75154;SDS011;63735;44.730;37.818;2022-11-15T15:10:39;14.45;;;4.88;;
75154;SDS011;63735;44.730;37.818;2022-11-15T15:13:24;11.75;;;4.78;;
75154;SDS011;63735;44.730;37.818;2022-11-15T15:15:51;12.30;;;4.80;;
75154;SDS011;63735;44.730;37.818;2022-11-15T15:18:18;10.30;;;4.50;;
75154;SDS011;63735;44.730;37.818;2022-11-15T15:20:45;14.00;;;4.65;;
75154;SDS011;63735;44.730;37.818;2022-11-15T15:23:19;10.52;;;4.70;;
75154;SDS011;63735;44.730;37.818;2022-11-15T15:25:46;13.15;;;4.53;;
75154;SDS011;63735;44.730;37.818;2022-11-15T15:28:14;10.40;;;4.03;;
75154;SDS011;63735;44.730;37.818;2022-11-15T15:30:40;10.57;;;4.28;;
75154;SDS011;63735;44.730;37.818;2022-11-15T15:33:06;12.63;;;5.13;;
75154;SDS011;63735;44.730;37.818;2022-11-15T15:35:33;8.85;;;4.07;;
75154;SDS011;63735;44.730;37.818;2022-11-15T15:38:00;10.98;;;4.40;;
75154;SDS011;63735;44.730;37.818;2022-11-15T15:40:27;6.15;;;3.83;;
75154;SDS011;63735;44.730;37.818;2022-11-15T15:42:55;7.60;;;4.07;;
75154;SDS011;63735;44.730;37.818;2022-11-15T15:45:21;7.57;;;3.40;;
75154;SDS011;63735;44.730;37.818;2022-11-15T15:47:47;10.98;;;4.07;;
75154;SDS011;63735;44.730;37.818;2022-11-15T15:52:50;7.10;;;4.10;;
75154;SDS011;63735;44.730;37.818;2022-11-15T15:55:17;8.68;;;3.90;;
75154;SDS011;63735;44.730;37.818;2022-11-15T15:57:43;8.38;;;3.63;;
75154;SDS011;63735;44.730;37.818;2022-11-15T16:00:09;10.45;;;4.45;;
75154;SDS011;63735;44.730;37.818;2022-11-15T16:02:39;9.00;;;3.72;;
75154;SDS011;63735;44.730;37.818;2022-11-15T16:05:06;10.90;;;3.97;;
75154;SDS011;63735;44.730;37.818;2022-11-15T16:07:33;7.20;;;3.63;;
75154;SDS011;63735;44.730;37.818;2022-11-15T16:09:59;12.63;;;4.45;;
75154;SDS011;63735;44.730;37.818;2022-11-15T16:12:25;9.20;;;3.80;;
75154;SDS011;63735;44.730;37.818;2022-11-15T16:14:52;10.73;;;4.53;;
75154;SDS011;63735;44.730;37.818;2022-11-15T16:17:18;9.48;;;3.83;;
75154;SDS011;63735;44.730;37.818;2022-11-15T16:19:49;8.05;;;3.78;;
75154;SDS011;63735;44.730;37.818;2022-11-15T16:22:15;11.65;;;3.75;;
75154;SDS011;63735;44.730;37.818;2022-11-15T16:24:41;8.88;;;3.90;;
75154;SDS011;63735;44.730;37.818;2022-11-15T16:27:14;11.23;;;3.65;;
75154;SDS011;63735;44.730;37.818;2022-11-15T16:29:45;8.98;;;4.00;;
75154;SDS011;63735;44.730;37.818;2022-11-15T16:32:12;12.35;;;4.75;;
75154;SDS011;63735;44.730;37.818;2022-11-15T16:34:38;7.40;;;3.83;;
75154;SDS011;63735;44.730;37.818;2022-11-15T16:37:04;10.45;;;4.47;;
75154;SDS011;63735;44.730;37.818;2022-11-15T16:39:30;9.10;;;3.65;;
75154;SDS011;63735;44.730;37.818;2022-11-15T16:41:59;7.32;;;3.45;;
75154;SDS011;63735;44.730;37.818;2022-11-15T16:44:25;8.48;;;3.25;;
75154;SDS011;63735;44.730;37.818;2022-11-15T16:46:51;10.00;;;3.60;;
75154;SDS011;63735;44.730;37.818;2022-11-15T16:49:18;9.60;;;3.35;;
75154;SDS011;63735;44.730;37.818;2022-11-15T16:51:45;12.45;;;3.83;;
75154;SDS011;63735;44.730;37.818;2022-11-15T16:54:13;8.15;;;3.10;;
75154;SDS011;63735;44.730;37.818;2022-11-15T16:56:39;6.85;;;3.60;;
75154;SDS011;63735;44.730;37.818;2022-11-15T16:59:06;6.10;;;3.55;;
75154;SDS011;63735;44.730;37.818;2022-11-15T17:01:34;8.23;;;3.53;;
75154;SDS011;63735;44.730;37.818;2022-11-15T17:04:11;10.80;;;3.78;;
75154;SDS011;63735;44.730;37.818;2022-11-15T17:06:41;22.48;;;4.75;;
75154;SDS011;63735;44.730;37.818;2022-11-15T17:09:14;9.88;;;4.93;;
75154;SDS011;63735;44.730;37.818;2022-11-15T17:11:45;18.25;;;4.75;;
75154;SDS011;63735;44.730;37.818;2022-11-15T17:14:11;14.43;;;4.93;;
75154;SDS011;63735;44.730;37.818;2022-11-15T17:16:37;10.70;;;4.38;;
75154;SDS011;63735;44.730;37.818;2022-11-15T17:19:13;10.43;;;4.22;;
75154;SDS011;63735;44.730;37.818;2022-11-15T17:21:41;7.00;;;3.55;;
75154;SDS011;63735;44.730;37.818;2022-11-15T17:24:07;15.35;;;3.55;;
75154;SDS011;63735;44.730;37.818;2022-11-15T17:26:33;10.20;;;4.38;;
75154;SDS011;63735;44.730;37.818;2022-11-15T17:28:59;15.27;;;4.97;;
75154;SDS011;63735;44.730;37.818;2022-11-15T17:31:26;11.23;;;4.22;;
75154;SDS011;63735;44.730;37.818;2022-11-15T17:33:54;10.35;;;4.07;;
75154;SDS011;63735;44.730;37.818;2022-11-15T17:36:21;10.45;;;4.03;;
75154;SDS011;63735;44.730;37.818;2022-11-15T17:38:47;11.77;;;4.05;;
75154;SDS011;63735;44.730;37.818;2022-11-15T17:41:17;8.75;;;3.20;;
75154;SDS011;63735;44.730;37.818;2022-11-15T17:43:45;11.10;;;3.88;;
75154;SDS011;63735;44.730;37.818;2022-11-15T17:46:13;15.13;;;4.55;;
75154;SDS011;63735;44.730;37.818;2022-11-15T17:48:42;10.02;;;4.20;;
75154;SDS011;63735;44.730;37.818;2022-11-15T17:51:11;5.63;;;3.10;;
75154;SDS011;63735;44.730;37.818;2022-11-15T17:53:40;4.88;;;2.47;;
75154;SDS011;63735;44.730;37.818;2022-11-15T17:58:37;8.45;;;3.17;;
75154;SDS011;63735;44.730;37.818;2022-11-15T18:01:13;6.45;;;2.95;;
75154;SDS011;63735;44.730;37.818;2022-11-15T18:03:48;6.93;;;2.90;;
75154;SDS011;63735;44.730;37.818;2022-11-15T18:06:14;7.97;;;2.78;;
75154;SDS011;63735;44.730;37.818;2022-11-15T18:08:42;9.00;;;3.33;;
75154;SDS011;63735;44.730;37.818;2022-11-15T18:13:36;11.57;;;3.13;;
75154;SDS011;63735;44.730;37.818;2022-11-15T18:16:04;8.80;;;3.15;;
75154;SDS011;63735;44.730;37.818;2022-11-15T18:18:32;8.35;;;3.35;;
75154;SDS011;63735;44.730;37.818;2022-11-15T18:21:03;8.90;;;4.38;;
75154;SDS011;63735;44.730;37.818;2022-11-15T18:23:30;7.80;;;3.53;;